createdAt,value
2022-09-11T00:00:47.326Z,1007.8
2022-09-11T00:01:50.955Z,1007.8
2022-09-11T00:02:54.175Z,1007.7
2022-09-11T00:03:57.693Z,1007.7
2022-09-11T00:05:00.784Z,1007.8
2022-09-11T00:06:04.023Z,1007.8
2022-09-11T00:07:06.834Z,1007.8
2022-09-11T00:08:09.632Z,1007.8
2022-09-11T00:09:12.598Z,1007.8
2022-09-11T00:10:15.458Z,1007.8
2022-09-11T00:11:19.252Z,1007.8
2022-09-11T00:12:22.234Z,1007.8
2022-09-11T00:13:25.296Z,1007.8
2022-09-11T00:14:27.744Z,1007.8
2022-09-11T00:15:30.583Z,1007.8
2022-09-11T00:16:32.928Z,1007.8
2022-09-11T00:17:36.199Z,1007.8
2022-09-11T00:18:39.190Z,1007.8
2022-09-11T00:19:42.249Z,1007.8
2022-09-11T00:20:45.384Z,1007.8
2022-09-11T00:21:48.835Z,1007.9
2022-09-11T00:22:52.208Z,1007.9
2022-09-11T00:23:54.486Z,1007.8
2022-09-11T00:24:56.999Z,1007.9
2022-09-11T00:25:59.520Z,1007.9
2022-09-11T00:27:03.401Z,1007.9
2022-09-11T00:28:06.671Z,1007.9
2022-09-11T00:29:09.552Z,1007.8
2022-09-11T00:30:12.093Z,1007.8
2022-09-11T00:31:14.890Z,1007.8
2022-09-11T00:32:18.128Z,1007.8
2022-09-11T00:33:20.905Z,1007.8
2022-09-11T00:34:24.303Z,1007.8
2022-09-11T00:35:27.164Z,1007.8
2022-09-11T00:36:29.588Z,1007.7
2022-09-11T00:37:32.903Z,1007.8
2022-09-11T00:38:35.492Z,1007.8
2022-09-11T00:39:39.009Z,1007.8
2022-09-11T00:40:41.913Z,1007.8
2022-09-11T00:41:44.717Z,1007.8
2022-09-11T00:42:48.646Z,1007.8
2022-09-11T00:43:52.647Z,1007.8
2022-09-11T00:44:56.177Z,1007.8
2022-09-11T00:45:59.495Z,1007.8
2022-09-11T00:47:02.519Z,1007.8
2022-09-11T00:48:05.136Z,1007.8
2022-09-11T00:49:08.130Z,1007.8
2022-09-11T00:50:11.278Z,1007.8
2022-09-11T00:51:14.451Z,1007.7
2022-09-11T00:52:17.640Z,1007.8
2022-09-11T00:53:20.785Z,1007.8
2022-09-11T00:54:23.659Z,1007.8
2022-09-11T00:55:27.074Z,1007.8
2022-09-11T00:56:30.301Z,1007.8
2022-09-11T00:57:33.369Z,1007.8
2022-09-11T00:58:37.027Z,1007.8
2022-09-11T00:59:41.057Z,1007.8
2022-09-11T01:00:44.450Z,1007.8
2022-09-11T01:01:47.609Z,1007.9
2022-09-11T01:02:50.779Z,1007.9
2022-09-11T01:03:53.435Z,1007.9
2022-09-11T01:04:56.576Z,1007.9
2022-09-11T01:05:59.297Z,1007.9
2022-09-11T01:07:01.998Z,1007.9
2022-09-11T01:08:04.530Z,1007.9
2022-09-11T01:09:07.784Z,1007.9
2022-09-11T01:10:10.848Z,1007.8
2022-09-11T01:11:14.025Z,1007.9
2022-09-11T01:12:17.182Z,1007.8
2022-09-11T01:13:19.895Z,1007.9
2022-09-11T01:14:23.814Z,1007.8
2022-09-11T01:15:27.269Z,1007.8
2022-09-11T01:16:30.378Z,1007.8
2022-09-11T01:17:33.873Z,1007.8
2022-09-11T01:18:36.664Z,1007.8
2022-09-11T01:19:39.533Z,1007.7
2022-09-11T01:20:42.428Z,1007.7
2022-09-11T01:21:44.659Z,1007.7
2022-09-11T01:22:47.266Z,1007.8
2022-09-11T01:23:49.781Z,1007.7
2022-09-11T01:24:52.752Z,1007.8
2022-09-11T01:25:55.896Z,1007.8
2022-09-11T01:26:58.402Z,1007.8
2022-09-11T01:28:01.033Z,1007.8
2022-09-11T01:29:04.409Z,1007.8
2022-09-11T01:30:12.181Z,1007.8
2022-09-11T01:31:15.741Z,1007.8
2022-09-11T01:32:19.016Z,1007.8
2022-09-11T01:33:22.463Z,1007.8
2022-09-11T01:34:25.928Z,1007.8
2022-09-11T01:35:28.532Z,1007.8
2022-09-11T01:36:31.042Z,1007.8
2022-09-11T01:37:34.219Z,1007.8
2022-09-11T01:38:37.314Z,1007.8
2022-09-11T01:39:40.476Z,1007.8
2022-09-11T01:40:44.100Z,1007.8
2022-09-11T01:41:47.173Z,1007.9
2022-09-11T01:42:50.108Z,1007.8
2022-09-11T01:43:52.988Z,1007.9
2022-09-11T01:44:56.059Z,1007.8
2022-09-11T01:46:00.273Z,1007.9
2022-09-11T01:47:03.437Z,1007.8
2022-09-11T01:48:06.501Z,1007.9
2022-09-11T01:49:09.120Z,1007.9
2022-09-11T01:50:12.452Z,1007.9
2022-09-11T01:51:15.317Z,1007.9
2022-09-11T01:52:17.746Z,1007.9
2022-09-11T01:53:21.190Z,1007.9
2022-09-11T01:54:24.251Z,1007.9
2022-09-11T01:55:27.041Z,1007.9
2022-09-11T01:56:30.460Z,1007.9
2022-09-11T01:57:33.570Z,1007.9
2022-09-11T01:58:36.728Z,1007.9
2022-09-11T01:59:40.227Z,1007.9
2022-09-11T02:00:42.713Z,1007.9
2022-09-11T02:01:46.859Z,1008
2022-09-11T02:02:50.132Z,1008
2022-09-11T02:03:52.943Z,1008
2022-09-11T02:04:56.098Z,1008
2022-09-11T02:05:59.161Z,1008
2022-09-11T02:07:02.248Z,1007.9
2022-09-11T02:08:05.039Z,1008
2022-09-11T02:09:08.110Z,1008
2022-09-11T02:10:11.475Z,1008
2022-09-11T02:11:13.707Z,1008
2022-09-11T02:12:16.294Z,1008
2022-09-11T02:13:19.093Z,1008
2022-09-11T02:14:22.239Z,1008
2022-09-11T02:15:25.115Z,1008
2022-09-11T02:16:28.198Z,1008
2022-09-11T02:17:32.702Z,1008
2022-09-11T02:18:36.120Z,1008
2022-09-11T02:19:39.209Z,1008.1
2022-09-11T02:20:42.006Z,1008
2022-09-11T02:21:44.716Z,1008
2022-09-11T02:22:47.667Z,1008.1
2022-09-11T02:23:51.012Z,1008.1
2022-09-11T02:24:53.834Z,1008.1
2022-09-11T02:25:56.996Z,1008.1
2022-09-11T02:27:00.616Z,1008.1
2022-09-11T02:28:04.109Z,1008.1
2022-09-11T02:29:07.108Z,1008.1
2022-09-11T02:30:09.348Z,1008.1
2022-09-11T02:31:12.836Z,1008.1
2022-09-11T02:32:15.877Z,1008.1
2022-09-11T02:33:19.782Z,1008.1
2022-09-11T02:34:22.866Z,1008.1
2022-09-11T02:35:25.666Z,1008.2
2022-09-11T02:36:28.259Z,1008.1
2022-09-11T02:37:31.420Z,1008.1
2022-09-11T02:38:34.293Z,1008.2
2022-09-11T02:39:37.499Z,1008.1
2022-09-11T02:40:40.874Z,1008.2
2022-09-11T02:41:43.679Z,1008.2
2022-09-11T02:42:46.883Z,1008.2
2022-09-11T02:43:50.037Z,1008.2
2022-09-11T02:44:52.752Z,1008.2
2022-09-11T02:45:55.434Z,1008.2
2022-09-11T02:46:58.230Z,1008.3
2022-09-11T02:48:01.083Z,1008.3
2022-09-11T02:49:04.907Z,1008.3
2022-09-11T02:50:08.323Z,1008.3
2022-09-11T02:51:11.592Z,1008.3
2022-09-11T02:52:14.668Z,1008.3
2022-09-11T02:53:17.268Z,1008.3
2022-09-11T02:54:20.138Z,1008.3
2022-09-11T02:55:22.743Z,1008.3
2022-09-11T02:56:25.336Z,1008.3
2022-09-11T02:57:28.789Z,1008.3
2022-09-11T02:58:31.183Z,1008.3
2022-09-11T02:59:34.176Z,1008.4
2022-09-11T03:00:37.282Z,1008.4
2022-09-11T03:01:40.034Z,1008.3
2022-09-11T03:02:43.005Z,1008.4
2022-09-11T03:03:46.805Z,1008.4
2022-09-11T03:04:51.280Z,1008.4
2022-09-11T03:05:54.315Z,1008.4
2022-09-11T03:06:57.673Z,1008.3
2022-09-11T03:08:00.849Z,1008.4
2022-09-11T03:09:03.536Z,1008.4
2022-09-11T03:10:06.318Z,1008.4
2022-09-11T03:11:09.286Z,1008.4
2022-09-11T03:12:12.653Z,1008.4
2022-09-11T03:13:15.511Z,1008.4
2022-09-11T03:14:18.303Z,1008.4
2022-09-11T03:15:20.750Z,1008.4
2022-09-11T03:16:23.762Z,1008.4
2022-09-11T03:17:26.697Z,1008.4
2022-09-11T03:18:29.771Z,1008.4
2022-09-11T03:19:32.563Z,1008.4
2022-09-11T03:20:36.477Z,1008.4
2022-09-11T03:21:39.570Z,1008.4
2022-09-11T03:22:42.353Z,1008.4
2022-09-11T03:23:44.966Z,1008.4
2022-09-11T03:24:47.478Z,1008.4
2022-09-11T03:25:49.793Z,1008.5
2022-09-11T03:26:52.689Z,1008.5
2022-09-11T03:27:55.279Z,1008.5
2022-09-11T03:28:58.428Z,1008.5
2022-09-11T03:30:01.213Z,1008.5
2022-09-11T03:31:04.739Z,1008.5
2022-09-11T03:32:07.749Z,1008.5
2022-09-11T03:33:10.542Z,1008.5
2022-09-11T03:34:13.336Z,1008.5
2022-09-11T03:35:15.926Z,1008.5
2022-09-11T03:36:19.740Z,1008.5
2022-09-11T03:37:22.547Z,1008.5
2022-09-11T03:38:26.081Z,1008.5
2022-09-11T03:39:29.351Z,1008.4
2022-09-11T03:40:32.413Z,1008.5
2022-09-11T03:41:35.839Z,1008.5
2022-09-11T03:42:38.983Z,1008.5
2022-09-11T03:43:41.849Z,1008.5
2022-09-11T03:44:45.949Z,1008.5
2022-09-11T03:45:49.263Z,1008.5
2022-09-11T03:46:52.042Z,1008.5
2022-09-11T03:47:55.839Z,1008.5
2022-09-11T03:48:58.429Z,1008.5
2022-09-11T03:50:01.289Z,1008.5
2022-09-11T03:51:04.730Z,1008.5
2022-09-11T03:52:08.329Z,1008.5
2022-09-11T03:53:11.862Z,1008.4
2022-09-11T03:54:15.205Z,1008.4
2022-09-11T03:55:17.979Z,1008.4
2022-09-11T03:56:21.752Z,1008.4
2022-09-11T03:57:24.536Z,1008.4
2022-09-11T03:58:26.974Z,1008.4
2022-09-11T03:59:30.113Z,1008.5
2022-09-11T04:00:32.995Z,1008.5
2022-09-11T04:01:36.062Z,1008.5
2022-09-11T04:02:38.384Z,1008.5
2022-09-11T04:03:41.021Z,1008.5
2022-09-11T04:04:44.592Z,1008.5
2022-09-11T04:05:47.392Z,1008.5
2022-09-11T04:06:50.100Z,1008.5
2022-09-11T04:07:53.675Z,1008.5
2022-09-11T04:08:56.486Z,1008.5
2022-09-11T04:09:59.104Z,1008.5
2022-09-11T04:11:02.522Z,1008.5
2022-09-11T04:12:05.873Z,1008.5
2022-09-11T04:13:08.392Z,1008.5
2022-09-11T04:14:11.179Z,1008.5
2022-09-11T04:15:14.674Z,1008.5
2022-09-11T04:16:18.187Z,1008.5
2022-09-11T04:17:21.299Z,1008.5
2022-09-11T04:18:24.283Z,1008.5
2022-09-11T04:19:27.614Z,1008.5
2022-09-11T04:20:30.563Z,1008.6
2022-09-11T04:21:33.068Z,1008.6
2022-09-11T04:22:35.310Z,1008.6
2022-09-11T04:23:39.601Z,1008.6
2022-09-11T04:24:42.990Z,1008.6
2022-09-11T04:25:46.329Z,1008.6
2022-09-11T04:26:49.197Z,1008.6
2022-09-11T04:27:52.459Z,1008.6
2022-09-11T04:28:55.354Z,1008.6
2022-09-11T04:29:58.428Z,1008.6
2022-09-11T04:31:01.602Z,1008.6
2022-09-11T04:32:04.797Z,1008.6
2022-09-11T04:33:07.742Z,1008.6
2022-09-11T04:34:10.741Z,1008.6
2022-09-11T04:35:13.874Z,1008.6
2022-09-11T04:36:17.011Z,1008.6
2022-09-11T04:37:20.164Z,1008.6
2022-09-11T04:38:23.134Z,1008.6
2022-09-11T04:39:27.252Z,1008.6
2022-09-11T04:40:30.593Z,1008.6
2022-09-11T04:41:34.330Z,1008.6
2022-09-11T04:42:36.920Z,1008.6
2022-09-11T04:43:41.104Z,1008.6
2022-09-11T04:44:44.478Z,1008.6
2022-09-11T04:45:47.125Z,1008.5
2022-09-11T04:46:50.721Z,1008.6
2022-09-11T04:47:53.237Z,1008.6
2022-09-11T04:48:56.123Z,1008.6
2022-09-11T04:49:58.836Z,1008.6
2022-09-11T04:51:01.439Z,1008.6
2022-09-11T04:52:04.866Z,1008.6
2022-09-11T04:53:07.476Z,1008.5
2022-09-11T04:54:11.162Z,1008.5
2022-09-11T04:55:15.084Z,1008.5
2022-09-11T04:56:18.533Z,1008.5
2022-09-11T04:57:21.403Z,1008.6
2022-09-11T04:58:23.634Z,1008.6
2022-09-11T04:59:26.811Z,1008.6
2022-09-11T05:00:29.290Z,1008.6
2022-09-11T05:01:32.119Z,1008.6
2022-09-11T05:02:35.219Z,1008.6
2022-09-11T05:03:38.358Z,1008.6
2022-09-11T05:04:41.885Z,1008.6
2022-09-11T05:05:45.414Z,1008.6
2022-09-11T05:06:48.778Z,1008.6
2022-09-11T05:07:51.298Z,1008.6
2022-09-11T05:08:54.638Z,1008.6
2022-09-11T05:09:57.749Z,1008.6
2022-09-11T05:11:01.681Z,1008.7
2022-09-11T05:12:04.775Z,1008.6
2022-09-11T05:13:08.206Z,1008.6
2022-09-11T05:14:11.282Z,1008.7
2022-09-11T05:15:14.200Z,1008.7
2022-09-11T05:16:16.332Z,1008.7
2022-09-11T05:17:20.107Z,1008.7
2022-09-11T05:18:22.886Z,1008.7
2022-09-11T05:19:25.346Z,1008.7
2022-09-11T05:20:28.439Z,1008.7
2022-09-11T05:21:31.535Z,1008.7
2022-09-11T05:22:34.330Z,1008.7
2022-09-11T05:23:37.270Z,1008.7
2022-09-11T05:24:41.116Z,1008.8
2022-09-11T05:25:43.907Z,1008.8
2022-09-11T05:26:48.015Z,1008.8
2022-09-11T05:27:50.809Z,1008.8
2022-09-11T05:28:53.874Z,1008.8
2022-09-11T05:29:56.588Z,1008.8
2022-09-11T05:30:59.522Z,1008.9
2022-09-11T05:32:02.689Z,1008.9
2022-09-11T05:33:05.278Z,1008.9
2022-09-11T05:34:08.427Z,1008.9
2022-09-11T05:35:11.027Z,1008.9
2022-09-11T05:36:14.494Z,1008.9
2022-09-11T05:37:17.920Z,1009
2022-09-11T05:38:21.162Z,1009
2022-09-11T05:39:24.481Z,1009
2022-09-11T05:40:27.138Z,1009
2022-09-11T05:41:30.287Z,1009
2022-09-11T05:42:34.409Z,1009
2022-09-11T05:43:37.209Z,1009
2022-09-11T05:44:40.541Z,1009
2022-09-11T05:45:44.058Z,1009
2022-09-11T05:46:48.038Z,1009
2022-09-11T05:47:56.219Z,1009.1
2022-09-11T05:48:59.014Z,1009.1
2022-09-11T05:50:01.454Z,1009.1
2022-09-11T05:51:04.648Z,1009.1
2022-09-11T05:52:08.323Z,1009.1
2022-09-11T05:53:11.249Z,1009.2
2022-09-11T05:54:14.600Z,1009.2
2022-09-11T05:55:16.911Z,1009.2
2022-09-11T05:56:19.981Z,1009.2
2022-09-11T05:57:23.395Z,1009.2
2022-09-11T05:58:27.227Z,1009.3
2022-09-11T05:59:30.404Z,1009.2
2022-09-11T06:00:33.188Z,1009.2
2022-09-11T06:01:36.158Z,1009.3
2022-09-11T06:02:39.240Z,1009.3
2022-09-11T06:03:42.857Z,1009.3
2022-09-11T06:04:45.828Z,1009.3
2022-09-11T06:05:48.128Z,1009.3
2022-09-11T06:06:51.582Z,1009.3
2022-09-11T06:07:54.788Z,1009.3
2022-09-11T06:08:58.250Z,1009.3
2022-09-11T06:10:03.677Z,1009.3
2022-09-11T06:11:06.755Z,1009.3
2022-09-11T06:12:09.403Z,1009.3
2022-09-11T06:13:12.826Z,1009.3
2022-09-11T06:14:16.419Z,1009.3
2022-09-11T06:15:46.811Z,1009.4
2022-09-11T06:16:50.474Z,1009.4
2022-09-11T06:17:53.332Z,1009.4
2022-09-11T06:18:56.743Z,1009.4
2022-09-11T06:19:59.690Z,1009.4
2022-09-11T06:21:02.341Z,1009.4
2022-09-11T06:22:05.219Z,1009.4
2022-09-11T06:23:09.647Z,1009.4
2022-09-11T06:24:12.729Z,1009.4
2022-09-11T06:25:15.701Z,1009.4
2022-09-11T06:26:18.694Z,1009.4
2022-09-11T06:27:21.011Z,1009.4
2022-09-11T06:28:24.161Z,1009.5
2022-09-11T06:29:28.274Z,1009.4
2022-09-11T06:30:31.802Z,1009.5
2022-09-11T06:31:35.382Z,1009.5
2022-09-11T06:32:37.784Z,1009.5
2022-09-11T06:33:40.932Z,1009.5
2022-09-11T06:34:43.890Z,1009.5
2022-09-11T06:35:46.389Z,1009.5
2022-09-11T06:36:52.649Z,1009.5
2022-09-11T06:37:55.079Z,1009.5
2022-09-11T06:38:57.587Z,1009.5
2022-09-11T06:40:00.512Z,1009.6
2022-09-11T06:41:03.522Z,1009.5
2022-09-11T06:42:06.887Z,1009.5
2022-09-11T06:43:10.600Z,1009.5
2022-09-11T06:44:13.937Z,1009.6
2022-09-11T06:45:17.866Z,1009.6
2022-09-11T06:46:21.333Z,1009.6
2022-09-11T06:47:24.218Z,1009.6
2022-09-11T06:48:27.951Z,1009.5
2022-09-11T06:49:31.293Z,1009.6
2022-09-11T06:50:37.139Z,1009.6
2022-09-11T06:51:39.725Z,1009.5
2022-09-11T06:52:43.152Z,1009.5
2022-09-11T06:53:46.018Z,1009.6
2022-09-11T06:54:48.818Z,1009.5
2022-09-11T06:55:52.044Z,1009.5
2022-09-11T06:56:54.843Z,1009.5
2022-09-11T06:57:58.342Z,1009.5
2022-09-11T06:59:01.057Z,1009.6
2022-09-11T07:00:03.592Z,1009.6
2022-09-11T07:01:07.973Z,1009.6
2022-09-11T07:02:12.106Z,1009.6
2022-09-11T07:03:15.031Z,1009.6
2022-09-11T07:04:18.671Z,1009.6
2022-09-11T07:05:21.567Z,1009.6
2022-09-11T07:06:25.285Z,1009.6
2022-09-11T07:07:28.541Z,1009.7
2022-09-11T07:08:31.455Z,1009.6
2022-09-11T07:09:34.327Z,1009.6
2022-09-11T07:10:37.398Z,1009.6
2022-09-11T07:11:40.105Z,1009.6
2022-09-11T07:12:43.263Z,1009.6
2022-09-11T07:13:46.712Z,1009.6
2022-09-11T07:14:49.241Z,1009.6
2022-09-11T07:15:52.188Z,1009.6
2022-09-11T07:16:56.150Z,1009.6
2022-09-11T07:17:59.051Z,1009.5
2022-09-11T07:19:02.038Z,1009.6
2022-09-11T07:20:05.195Z,1009.6
2022-09-11T07:21:08.843Z,1009.6
2022-09-11T07:22:12.020Z,1009.6
2022-09-11T07:23:15.528Z,1009.6
2022-09-11T07:24:18.404Z,1009.6
2022-09-11T07:25:21.272Z,1009.7
2022-09-11T07:26:24.148Z,1009.6
2022-09-11T07:27:27.225Z,1009.7
2022-09-11T07:28:30.972Z,1009.7
2022-09-11T07:29:34.062Z,1009.6
2022-09-11T07:30:37.056Z,1009.7
2022-09-11T07:31:40.247Z,1009.7
2022-09-11T07:32:44.103Z,1009.7
2022-09-11T07:33:47.198Z,1009.7
2022-09-11T07:34:50.072Z,1009.7
2022-09-11T07:35:52.874Z,1009.7
2022-09-11T07:36:55.669Z,1009.7
2022-09-11T07:37:59.035Z,1009.7
2022-09-11T07:39:02.494Z,1009.7
2022-09-11T07:40:06.125Z,1009.7
2022-09-11T07:41:08.877Z,1009.7
2022-09-11T07:42:11.353Z,1009.7
2022-09-11T07:43:14.245Z,1009.7
2022-09-11T07:44:17.694Z,1009.7
2022-09-11T07:45:23.261Z,1009.7
2022-09-11T07:46:26.419Z,1009.7
2022-09-11T07:47:29.865Z,1009.7
2022-09-11T07:48:33.796Z,1009.7
2022-09-11T07:49:36.946Z,1009.7
2022-09-11T07:50:39.809Z,1009.7
2022-09-11T07:51:42.675Z,1009.7
2022-09-11T07:52:45.776Z,1009.7
2022-09-11T07:53:48.633Z,1009.7
2022-09-11T07:54:51.773Z,1009.7
2022-09-11T07:55:54.842Z,1009.7
2022-09-11T07:56:57.719Z,1009.7
2022-09-11T07:58:01.170Z,1009.7
2022-09-11T07:59:03.758Z,1009.7
2022-09-11T08:00:07.199Z,1009.8
2022-09-11T08:01:10.279Z,1009.8
2022-09-11T08:02:13.143Z,1009.7
2022-09-11T08:03:15.962Z,1009.7
2022-09-11T08:04:20.065Z,1009.8
2022-09-11T08:05:22.920Z,1009.8
2022-09-11T08:06:26.349Z,1009.8
2022-09-11T08:07:29.429Z,1009.8
2022-09-11T08:08:32.583Z,1009.8
2022-09-11T08:09:35.648Z,1009.8
2022-09-11T08:10:38.261Z,1009.8
2022-09-11T08:11:41.355Z,1009.8
2022-09-11T08:12:44.433Z,1009.9
2022-09-11T08:13:47.221Z,1009.9
2022-09-11T08:14:50.282Z,1009.8
2022-09-11T08:15:53.265Z,1009.8
2022-09-11T08:16:56.416Z,1009.8
2022-09-11T08:17:58.862Z,1009.8
2022-09-11T08:19:01.987Z,1009.9
2022-09-11T08:20:05.840Z,1009.9
2022-09-11T08:21:13.352Z,1009.9
2022-09-11T08:22:16.228Z,1009.9
2022-09-11T08:23:19.695Z,1009.9
2022-09-11T08:24:23.147Z,1009.9
2022-09-11T08:25:26.875Z,1009.9
2022-09-11T08:26:30.215Z,1009.9
2022-09-11T08:27:33.587Z,1009.9
2022-09-11T08:28:37.358Z,1009.9
2022-09-11T08:29:40.243Z,1009.9
2022-09-11T08:30:42.845Z,1009.9
2022-09-11T08:31:46.564Z,1009.9
2022-09-11T08:32:49.072Z,1010
2022-09-11T08:33:52.333Z,1010
2022-09-11T08:34:55.787Z,1009.9
2022-09-11T08:35:59.971Z,1010
2022-09-11T08:37:03.152Z,1010
2022-09-11T08:38:06.014Z,1010
2022-09-11T08:39:08.887Z,1010
2022-09-11T08:40:12.328Z,1010
2022-09-11T08:41:16.024Z,1010
2022-09-11T08:42:19.091Z,1010.1
2022-09-11T08:43:22.238Z,1010.1
2022-09-11T08:44:24.697Z,1010.1
2022-09-11T08:45:28.169Z,1010.1
2022-09-11T08:46:30.557Z,1010.1
2022-09-11T08:47:33.917Z,1010.1
2022-09-11T08:48:37.016Z,1010.1
2022-09-11T08:49:40.739Z,1010.1
2022-09-11T08:50:43.532Z,1010
2022-09-11T08:51:47.334Z,1010
2022-09-11T08:52:50.413Z,1010
2022-09-11T08:53:53.001Z,1010.1
2022-09-11T08:54:56.047Z,1010
2022-09-11T08:55:59.805Z,1010.1
2022-09-11T08:57:02.869Z,1010.1
2022-09-11T08:58:05.660Z,1010.1
2022-09-11T08:59:08.836Z,1010.1
2022-09-11T09:00:10.992Z,1010
2022-09-11T09:01:14.881Z,1010.1
2022-09-11T09:02:17.736Z,1010.1
2022-09-11T09:03:21.082Z,1010.1
2022-09-11T09:04:24.307Z,1010.1
2022-09-11T09:05:27.722Z,1010
2022-09-11T09:06:30.240Z,1010.1
2022-09-11T09:07:33.875Z,1010.1
2022-09-11T09:08:36.687Z,1010
2022-09-11T09:09:38.650Z,1010
2022-09-11T09:10:40.687Z,1010
2022-09-11T09:11:43.948Z,1010
2022-09-11T09:12:47.094Z,1010
2022-09-11T09:13:50.820Z,1010.1
2022-09-11T09:14:53.620Z,1010
2022-09-11T09:15:56.823Z,1010
2022-09-11T09:16:59.795Z,1010
2022-09-11T09:18:02.311Z,1010
2022-09-11T09:19:05.756Z,1010
2022-09-11T09:20:08.913Z,1010
2022-09-11T09:21:11.618Z,1010
2022-09-11T09:22:14.420Z,1010
2022-09-11T09:23:18.531Z,1010
2022-09-11T09:24:22.309Z,1010
2022-09-11T09:25:25.374Z,1010
2022-09-11T09:26:28.736Z,1010
2022-09-11T09:27:31.617Z,1010
2022-09-11T09:28:34.701Z,1010.1
2022-09-11T09:29:37.408Z,1010.1
2022-09-11T09:30:40.400Z,1010.1
2022-09-11T09:31:43.189Z,1010.1
2022-09-11T09:32:46.456Z,1010.1
2022-09-11T09:33:49.245Z,1010.1
2022-09-11T09:34:51.831Z,1010.1
2022-09-11T09:35:55.175Z,1010.1
2022-09-11T09:36:58.707Z,1010.2
2022-09-11T09:38:01.023Z,1010.2
2022-09-11T09:39:04.842Z,1010.2
2022-09-11T09:40:08.216Z,1010.2
2022-09-11T09:41:11.759Z,1010.2
2022-09-11T09:42:14.170Z,1010.2
2022-09-11T09:43:17.515Z,1010.2
2022-09-11T09:44:20.598Z,1010.2
2022-09-11T09:45:23.939Z,1010.2
2022-09-11T09:46:27.293Z,1010.2
2022-09-11T09:47:31.025Z,1010.2
2022-09-11T09:48:34.724Z,1010.3
2022-09-11T09:49:37.163Z,1010.3
2022-09-11T09:50:40.145Z,1010.3
2022-09-11T09:51:42.750Z,1010.3
2022-09-11T09:52:45.545Z,1010.3
2022-09-11T09:53:48.694Z,1010.3
2022-09-11T09:54:52.820Z,1010.3
2022-09-11T09:55:56.254Z,1010.2
2022-09-11T09:56:59.410Z,1010.2
2022-09-11T09:58:02.123Z,1010.3
2022-09-11T09:59:05.272Z,1010.2
2022-09-11T10:00:08.431Z,1010.3
2022-09-11T10:01:18.034Z,1010.3
2022-09-11T10:02:21.910Z,1010.3
2022-09-11T10:03:26.034Z,1010.3
2022-09-11T10:04:29.245Z,1010.3
2022-09-11T10:05:32.566Z,1010.4
2022-09-11T10:06:35.912Z,1010.4
2022-09-11T10:07:39.085Z,1010.4
2022-09-11T10:08:42.773Z,1010.3
2022-09-11T10:09:46.542Z,1010.4
2022-09-11T10:10:50.649Z,1010.3
2022-09-11T10:11:53.993Z,1010.3
2022-09-11T10:13:19.687Z,1010.3
2022-09-11T10:14:51.901Z,1010.4
2022-09-11T10:15:55.668Z,1010.3
2022-09-11T10:16:58.764Z,1010.3
2022-09-11T10:18:01.439Z,1010.4
2022-09-11T10:19:04.459Z,1010.4
2022-09-11T10:20:08.158Z,1010.4
2022-09-11T10:21:10.753Z,1010.4
2022-09-11T10:22:13.863Z,1010.4
2022-09-11T10:23:16.843Z,1010.4
2022-09-11T10:24:19.844Z,1010.4
2022-09-11T10:25:22.922Z,1010.4
2022-09-11T10:26:27.071Z,1010.4
2022-09-11T10:27:29.815Z,1010.4
2022-09-11T10:28:33.051Z,1010.4
2022-09-11T10:29:36.629Z,1010.3
2022-09-11T10:30:39.577Z,1010.4
2022-09-11T10:31:42.739Z,1010.4
2022-09-11T10:32:46.449Z,1010.4
2022-09-11T10:33:48.990Z,1010.4
2022-09-11T10:34:51.703Z,1010.4
2022-09-11T10:35:54.231Z,1010.4
2022-09-11T10:36:57.015Z,1010.4
2022-09-11T10:37:59.530Z,1010.4
2022-09-11T10:39:02.607Z,1010.4
2022-09-11T10:40:05.772Z,1010.4
2022-09-11T10:41:09.165Z,1010.4
2022-09-11T10:42:13.265Z,1010.4
2022-09-11T10:43:17.325Z,1010.4
2022-09-11T10:44:20.662Z,1010.5
2022-09-11T10:45:23.740Z,1010.4
2022-09-11T10:46:26.904Z,1010.4
2022-09-11T10:47:29.773Z,1010.4
2022-09-11T10:48:32.377Z,1010.4
2022-09-11T10:49:34.620Z,1010.4
2022-09-11T10:50:37.699Z,1010.4
2022-09-11T10:51:47.514Z,1010.4
2022-09-11T10:52:50.680Z,1010.4
2022-09-11T10:53:54.131Z,1010.5
2022-09-11T10:54:57.478Z,1010.5
2022-09-11T10:56:01.239Z,1010.4
2022-09-11T10:57:03.765Z,1010.4
2022-09-11T10:58:07.633Z,1010.4
2022-09-11T10:59:10.554Z,1010.4
2022-09-11T11:00:14.182Z,1010.4
2022-09-11T11:01:17.796Z,1010.4
2022-09-11T11:02:21.375Z,1010.4
2022-09-11T11:03:24.841Z,1010.5
2022-09-11T11:04:28.381Z,1010.4
2022-09-11T11:05:31.391Z,1010.4
2022-09-11T11:06:34.193Z,1010.5
2022-09-11T11:07:37.293Z,1010.4
2022-09-11T11:08:40.467Z,1010.5
2022-09-11T11:09:43.540Z,1010.4
2022-09-11T11:10:46.720Z,1010.5
2022-09-11T11:11:49.889Z,1010.4
2022-09-11T11:12:53.051Z,1010.5
2022-09-11T11:13:56.937Z,1010.4
2022-09-11T11:15:00.363Z,1010.4
2022-09-11T11:16:03.364Z,1010.5
2022-09-11T11:17:06.890Z,1010.5
2022-09-11T11:18:10.262Z,1010.5
2022-09-11T11:19:12.146Z,1010.5
2022-09-11T11:20:15.593Z,1010.5
2022-09-11T11:21:18.260Z,1010.5
2022-09-11T11:22:21.416Z,1010.5
2022-09-11T11:23:23.649Z,1010.5
2022-09-11T11:24:26.549Z,1010.5
2022-09-11T11:25:29.607Z,1010.5
2022-09-11T11:26:32.673Z,1010.5
2022-09-11T11:27:35.374Z,1010.5
2022-09-11T11:28:38.442Z,1010.5
2022-09-11T11:29:42.553Z,1010.5
2022-09-11T11:30:46.153Z,1010.4
2022-09-11T11:31:49.306Z,1010.5
2022-09-11T11:32:52.840Z,1010.5
2022-09-11T11:33:56.458Z,1010.5
2022-09-11T11:34:59.533Z,1010.5
2022-09-11T11:36:02.757Z,1010.5
2022-09-11T11:37:06.224Z,1010.5
2022-09-11T11:38:09.376Z,1010.6
2022-09-11T11:39:12.449Z,1010.5
2022-09-11T11:40:15.222Z,1010.6
2022-09-11T11:41:18.088Z,1010.6
2022-09-11T11:42:20.693Z,1010.6
2022-09-11T11:43:23.680Z,1010.6
2022-09-11T11:44:26.486Z,1010.6
2022-09-11T11:45:30.710Z,1010.6
2022-09-11T11:46:33.887Z,1010.6
2022-09-11T11:47:36.688Z,1010.6
2022-09-11T11:48:39.968Z,1010.6
2022-09-11T11:49:42.660Z,1010.6
2022-09-11T11:50:46.103Z,1010.6
2022-09-11T11:51:48.977Z,1010.6
2022-09-11T11:52:51.849Z,1010.6
2022-09-11T11:53:55.195Z,1010.6
2022-09-11T11:54:58.072Z,1010.6
2022-09-11T11:56:01.057Z,1010.6
2022-09-11T11:57:04.393Z,1010.6
2022-09-11T11:58:06.700Z,1010.6
2022-09-11T11:59:10.423Z,1010.6
2022-09-11T12:00:13.641Z,1010.7
2022-09-11T12:01:17.767Z,1010.7
2022-09-11T12:02:20.645Z,1010.7
2022-09-11T12:03:24.135Z,1010.7
2022-09-11T12:04:27.914Z,1010.7
2022-09-11T12:05:31.090Z,1010.7
2022-09-11T12:06:34.247Z,1010.7
2022-09-11T12:07:37.023Z,1010.7
2022-09-11T12:08:40.545Z,1010.8
2022-09-11T12:09:44.547Z,1010.7
2022-09-11T12:10:47.629Z,1010.7
2022-09-11T12:11:49.872Z,1010.7
2022-09-11T12:12:52.670Z,1010.7
2022-09-11T12:13:55.187Z,1010.7
2022-09-11T12:14:58.257Z,1010.8
2022-09-11T12:16:01.508Z,1010.8
2022-09-11T12:17:05.713Z,1010.8
2022-09-11T12:18:08.877Z,1010.7
2022-09-11T12:19:11.866Z,1010.8
2022-09-11T12:20:14.459Z,1010.8
2022-09-11T12:21:17.288Z,1010.8
2022-09-11T12:22:20.940Z,1010.8
2022-09-11T12:23:23.457Z,1010.8
2022-09-11T12:24:26.253Z,1010.8
2022-09-11T12:25:29.039Z,1010.8
2022-09-11T12:26:32.310Z,1010.8
2022-09-11T12:27:35.368Z,1010.7
2022-09-11T12:28:38.625Z,1010.8
2022-09-11T12:29:41.875Z,1010.8
2022-09-11T12:30:44.782Z,1010.8
2022-09-11T12:31:47.305Z,1010.7
2022-09-11T12:32:51.235Z,1010.8
2022-09-11T12:33:54.619Z,1010.8
2022-09-11T12:34:57.414Z,1010.8
2022-09-11T12:36:00.232Z,1010.8
2022-09-11T12:37:02.754Z,1010.8
2022-09-11T12:38:06.168Z,1010.8
2022-09-11T12:39:08.983Z,1010.8
2022-09-11T12:40:12.501Z,1010.8
2022-09-11T12:41:15.457Z,1010.8
2022-09-11T12:42:18.270Z,1010.8
2022-09-11T12:43:20.962Z,1010.8
2022-09-11T12:44:23.560Z,1010.8
2022-09-11T12:45:27.038Z,1010.8
2022-09-11T12:46:29.771Z,1010.8
2022-09-11T12:47:32.921Z,1010.9
2022-09-11T12:48:36.831Z,1010.9
2022-09-11T12:49:40.379Z,1010.8
2022-09-11T12:50:43.794Z,1010.9
2022-09-11T12:51:46.669Z,1010.9
2022-09-11T12:52:50.011Z,1010.8
2022-09-11T12:53:52.804Z,1010.8
2022-09-11T12:54:55.869Z,1010.8
2022-09-11T12:55:58.035Z,1010.8
2022-09-11T12:57:01.345Z,1010.8
2022-09-11T12:58:04.703Z,1010.8
2022-09-11T12:59:06.937Z,1010.8
2022-09-11T13:00:09.835Z,1010.8
2022-09-11T13:01:12.750Z,1010.8
2022-09-11T13:02:15.341Z,1010.8
2022-09-11T13:03:19.084Z,1010.8
2022-09-11T13:04:23.192Z,1010.8
2022-09-11T13:05:26.577Z,1010.7
2022-09-11T13:06:29.646Z,1010.8
2022-09-11T13:07:32.257Z,1010.8
2022-09-11T13:08:35.906Z,1010.8
2022-09-11T13:09:39.049Z,1010.8
2022-09-11T13:10:41.914Z,1010.7
2022-09-11T13:11:45.811Z,1010.7
2022-09-11T13:12:49.051Z,1010.7
2022-09-11T13:13:51.481Z,1010.7